sensor_id;sensor_type;location;lat;lon;timestamp;pressure;altitude;pressure_sealevel;temperature;humidity
48872;BME280;36154;51.674;7.824;2023-04-26T00:01:16;101010.56;;;20.13;52.34
48872;BME280;36154;51.674;7.824;2023-04-26T00:03:42;101012.31;;;20.12;52.43
48872;BME280;36154;51.674;7.824;2023-04-26T00:06:07;101010.56;;;20.13;52.26
48872;BME280;36154;51.674;7.824;2023-04-26T00:08:34;101016.63;;;20.13;52.48
48872;BME280;36154;51.674;7.824;2023-04-26T00:10:59;101011.47;;;20.12;52.39
48872;BME280;36154;51.674;7.824;2023-04-26T00:13:25;101018.34;;;20.13;52.16
48872;BME280;36154;51.674;7.824;2023-04-26T00:15:50;101017.50;;;20.12;52.32
48872;BME280;36154;51.674;7.824;2023-04-26T00:18:15;101014.13;;;20.09;52.42
48872;BME280;36154;51.674;7.824;2023-04-26T00:20:41;101026.09;;;20.13;52.40
48872;BME280;36154;51.674;7.824;2023-04-26T00:23:07;101020.91;;;20.13;52.42
48872;BME280;36154;51.674;7.824;2023-04-26T00:25:34;101030.44;;;20.12;52.11
48872;BME280;36154;51.674;7.824;2023-04-26T00:27:59;101024.41;;;20.12;52.28
48872;BME280;36154;51.674;7.824;2023-04-26T00:30:26;101025.34;;;20.08;52.33
48872;BME280;36154;51.674;7.824;2023-04-26T00:32:53;101025.25;;;20.12;52.12
48872;BME280;36154;51.674;7.824;2023-04-26T00:35:19;101019.31;;;20.07;52.36
48872;BME280;36154;51.674;7.824;2023-04-26T00:37:45;101029.59;;;20.12;52.26
48872;BME280;36154;51.674;7.824;2023-04-26T00:40:14;101024.41;;;20.12;52.64
48872;BME280;36154;51.674;7.824;2023-04-26T00:42:41;101015.00;;;20.08;52.42
48872;BME280;36154;51.674;7.824;2023-04-26T00:45:06;101015.03;;;20.06;52.33
48872;BME280;36154;51.674;7.824;2023-04-26T00:47:32;101024.41;;;20.12;52.28
48872;BME280;36154;51.674;7.824;2023-04-26T00:49:59;101014.94;;;20.11;52.50
48872;BME280;36154;51.674;7.824;2023-04-26T00:52:26;101017.53;;;20.11;52.23
48872;BME280;36154;51.674;7.824;2023-04-26T00:54:52;101025.28;;;20.11;52.35
48872;BME280;36154;51.674;7.824;2023-04-26T00:57:18;101021.00;;;20.10;52.30
48872;BME280;36154;51.674;7.824;2023-04-26T00:59:43;101018.38;;;20.11;52.12
48872;BME280;36154;51.674;7.824;2023-04-26T01:02:08;101013.25;;;20.10;52.26
48872;BME280;36154;51.674;7.824;2023-04-26T01:04:34;101008.91;;;20.10;52.21
48872;BME280;36154;51.674;7.824;2023-04-26T01:07:03;101011.50;;;20.10;52.19
48872;BME280;36154;51.674;7.824;2023-04-26T01:09:30;101005.50;;;20.10;52.40
48872;BME280;36154;51.674;7.824;2023-04-26T01:11:56;101011.50;;;20.10;52.47
48872;BME280;36154;51.674;7.824;2023-04-26T01:14:23;101010.66;;;20.10;52.14
48872;BME280;36154;51.674;7.824;2023-04-26T01:16:49;101010.66;;;20.10;52.14
48872;BME280;36154;51.674;7.824;2023-04-26T01:19:15;101010.66;;;20.10;52.12
48872;BME280;36154;51.674;7.824;2023-04-26T01:21:41;101012.38;;;20.09;52.10
48872;BME280;36154;51.674;7.824;2023-04-26T01:24:11;101014.97;;;20.09;52.12
48872;BME280;36154;51.674;7.824;2023-04-26T01:26:38;101019.28;;;20.09;52.14
48872;BME280;36154;51.674;7.824;2023-04-26T01:29:16;101000.50;;;20.01;52.06
48872;BME280;36154;51.674;7.824;2023-04-26T01:31:42;101009.91;;;20.05;52.24
48872;BME280;36154;51.674;7.824;2023-04-26T01:34:07;101010.75;;;20.05;52.08
48872;BME280;36154;51.674;7.824;2023-04-26T01:36:32;101012.41;;;20.08;52.05
48872;BME280;36154;51.674;7.824;2023-04-26T01:39:00;101017.56;;;20.08;52.14
48872;BME280;36154;51.674;7.824;2023-04-26T01:41:25;101002.16;;;20.05;51.97
48872;BME280;36154;51.674;7.824;2023-04-26T01:43:51;101009.81;;;20.08;52.03
48872;BME280;36154;51.674;7.824;2023-04-26T01:46:16;101003.91;;;20.03;51.92
48872;BME280;36154;51.674;7.824;2023-04-26T01:48:41;101010.72;;;20.07;52.08
48872;BME280;36154;51.674;7.824;2023-04-26T01:51:07;101020.16;;;20.08;51.96
48872;BME280;36154;51.674;7.824;2023-04-26T01:53:32;101015.03;;;20.06;51.84
48872;BME280;36154;51.674;7.824;2023-04-26T01:56:01;101008.13;;;20.07;51.97
48872;BME280;36154;51.674;7.824;2023-04-26T01:58:30;101011.66;;;20.03;51.91
48872;BME280;36154;51.674;7.824;2023-04-26T02:00:56;101015.03;;;20.06;51.98
48872;BME280;36154;51.674;7.824;2023-04-26T02:03:22;101014.22;;;20.04;52.02
48872;BME280;36154;51.674;7.824;2023-04-26T02:05:47;101017.66;;;20.05;51.79
48872;BME280;36154;51.674;7.824;2023-04-26T02:08:12;101017.66;;;20.05;52.14
48872;BME280;36154;51.674;7.824;2023-04-26T02:10:38;101020.25;;;20.05;52.01
48872;BME280;36154;51.674;7.824;2023-04-26T02:13:06;101018.53;;;20.04;51.77
48872;BME280;36154;51.674;7.824;2023-04-26T02:15:31;101024.53;;;20.06;51.74
48872;BME280;36154;51.674;7.824;2023-04-26T02:17:56;101021.13;;;20.04;51.84
48872;BME280;36154;51.674;7.824;2023-04-26T02:20:22;101015.97;;;20.04;51.75
48872;BME280;36154;51.674;7.824;2023-04-26T02:22:47;101022.84;;;20.05;51.75
48872;BME280;36154;51.674;7.824;2023-04-26T02:25:12;101019.38;;;20.04;51.77
48872;BME280;36154;51.674;7.824;2023-04-26T02:27:37;101019.41;;;20.03;51.91
48872;BME280;36154;51.674;7.824;2023-04-26T02:30:03;101014.25;;;20.03;51.77
48872;BME280;36154;51.674;7.824;2023-04-26T02:32:29;101018.63;;;19.99;51.95
48872;BME280;36154;51.674;7.824;2023-04-26T02:34:54;101016.81;;;20.03;51.85
48872;BME280;36154;51.674;7.824;2023-04-26T02:37:20;101021.16;;;20.02;51.78
48872;BME280;36154;51.674;7.824;2023-04-26T02:39:49;101021.16;;;20.02;51.71
48872;BME280;36154;51.674;7.824;2023-04-26T02:42:15;101027.19;;;20.03;51.68
48872;BME280;36154;51.674;7.824;2023-04-26T02:44:40;101021.16;;;20.02;51.75
48872;BME280;36154;51.674;7.824;2023-04-26T02:47:07;101016.84;;;20.01;51.88
48872;BME280;36154;51.674;7.824;2023-04-26T02:49:32;101022.00;;;20.03;51.50
48872;BME280;36154;51.674;7.824;2023-04-26T02:51:58;101022.00;;;20.03;51.73
48872;BME280;36154;51.674;7.824;2023-04-26T02:54:23;101022.91;;;20.02;51.56
48872;BME280;36154;51.674;7.824;2023-04-26T02:56:48;101019.47;;;20.00;51.65
48872;BME280;36154;51.674;7.824;2023-04-26T02:59:13;101021.19;;;20.01;51.57
48872;BME280;36154;51.674;7.824;2023-04-26T03:01:39;101016.00;;;20.01;51.63
48872;BME280;36154;51.674;7.824;2023-04-26T03:04:04;101014.28;;;20.00;51.63
48872;BME280;36154;51.674;7.824;2023-04-26T03:06:29;101010.88;;;19.99;51.64
48872;BME280;36154;51.674;7.824;2023-04-26T03:08:55;101015.16;;;20.00;51.60
48872;BME280;36154;51.674;7.824;2023-04-26T03:11:20;101012.63;;;19.99;51.50
48872;BME280;36154;51.674;7.824;2023-04-26T03:13:45;101005.75;;;19.96;51.53
48872;BME280;36154;51.674;7.824;2023-04-26T03:16:11;101012.63;;;19.99;51.47
48872;BME280;36154;51.674;7.824;2023-04-26T03:18:36;101010.88;;;19.99;51.46
48872;BME280;36154;51.674;7.824;2023-04-26T03:21:01;101012.63;;;19.99;51.51
48872;BME280;36154;51.674;7.824;2023-04-26T03:23:27;101014.28;;;20.00;51.41
48872;BME280;36154;51.674;7.824;2023-04-26T03:25:53;101010.88;;;19.99;51.33
48872;BME280;36154;51.674;7.824;2023-04-26T03:28:18;101009.22;;;19.97;51.43
48872;BME280;36154;51.674;7.824;2023-04-26T03:30:44;101013.47;;;19.98;51.47
48872;BME280;36154;51.674;7.824;2023-04-26T03:33:10;101005.72;;;19.98;51.42
48872;BME280;36154;51.674;7.824;2023-04-26T03:35:37;101010.06;;;19.97;51.13
48872;BME280;36154;51.674;7.824;2023-04-26T03:38:02;101010.91;;;19.98;51.16
48872;BME280;36154;51.674;7.824;2023-04-26T03:40:28;101003.13;;;19.98;51.83
48872;BME280;36154;51.674;7.824;2023-04-26T03:42:53;101004.91;;;19.96;51.22
48872;BME280;36154;51.674;7.824;2023-04-26T03:45:19;100990.28;;;19.93;51.61
48872;BME280;36154;51.674;7.824;2023-04-26T03:47:44;101009.22;;;19.97;51.32
48872;BME280;36154;51.674;7.824;2023-04-26T03:50:10;101004.03;;;19.97;51.18
48872;BME280;36154;51.674;7.824;2023-04-26T03:52:36;101009.22;;;19.97;51.14
48872;BME280;36154;51.674;7.824;2023-04-26T03:55:03;101004.91;;;19.96;51.28
48872;BME280;36154;51.674;7.824;2023-04-26T03:57:29;101000.63;;;19.94;51.12
48872;BME280;36154;51.674;7.824;2023-04-26T03:59:54;101012.66;;;19.96;51.05
48872;BME280;36154;51.674;7.824;2023-04-26T04:02:20;101003.16;;;19.96;51.21
48872;BME280;36154;51.674;7.824;2023-04-26T04:04:45;100999.00;;;19.90;51.29
48872;BME280;36154;51.674;7.824;2023-04-26T04:07:11;100999.78;;;19.94;51.04
48872;BME280;36154;51.674;7.824;2023-04-26T04:09:36;100995.59;;;19.88;51.09
48872;BME280;36154;51.674;7.824;2023-04-26T04:12:01;101000.63;;;19.94;50.97
48872;BME280;36154;51.674;7.824;2023-04-26T04:14:27;101000.63;;;19.94;50.99
48872;BME280;36154;51.674;7.824;2023-04-26T04:16:52;100997.22;;;19.92;50.95
48872;BME280;36154;51.674;7.824;2023-04-26T04:19:18;100995.59;;;19.88;51.15
48872;BME280;36154;51.674;7.824;2023-04-26T04:21:43;100993.88;;;19.87;51.24
48872;BME280;36154;51.674;7.824;2023-04-26T04:24:09;100998.06;;;19.93;50.97
48872;BME280;36154;51.674;7.824;2023-04-26T04:26:35;101008.38;;;19.94;50.93
48872;BME280;36154;51.674;7.824;2023-04-26T04:29:01;101013.56;;;19.93;51.19
48872;BME280;36154;51.674;7.824;2023-04-26T04:31:34;101005.88;;;19.91;51.04
48872;BME280;36154;51.674;7.824;2023-04-26T04:34:00;101006.72;;;19.92;50.94
48872;BME280;36154;51.674;7.824;2023-04-26T04:36:25;101003.28;;;19.91;51.04
48872;BME280;36154;51.674;7.824;2023-04-26T04:38:50;101010.13;;;19.92;50.97
48872;BME280;36154;51.674;7.824;2023-04-26T04:41:17;101013.63;;;19.91;50.87
48872;BME280;36154;51.674;7.824;2023-04-26T04:43:42;101010.22;;;19.88;50.85
48872;BME280;36154;51.674;7.824;2023-04-26T04:46:08;101012.75;;;19.91;50.99
48872;BME280;36154;51.674;7.824;2023-04-26T04:48:33;101011.03;;;19.91;51.08
48872;BME280;36154;51.674;7.824;2023-04-26T04:50:59;101017.09;;;19.90;50.91
48872;BME280;36154;51.674;7.824;2023-04-26T04:53:26;101020.50;;;19.91;50.79
48872;BME280;36154;51.674;7.824;2023-04-26T04:55:51;101018.88;;;19.87;50.75
48872;BME280;36154;51.674;7.824;2023-04-26T04:58:17;101024.84;;;19.90;50.98
48872;BME280;36154;51.674;7.824;2023-04-26T05:00:42;101030.00;;;19.90;51.11
48872;BME280;36154;51.674;7.824;2023-04-26T05:03:07;101030.00;;;19.90;50.94
48872;BME280;36154;51.674;7.824;2023-04-26T05:05:33;101022.25;;;19.90;50.59
48872;BME280;36154;51.674;7.824;2023-04-26T05:07:59;101029.19;;;19.90;50.82
48872;BME280;36154;51.674;7.824;2023-04-26T05:10:25;101028.28;;;19.91;50.43
48872;BME280;36154;51.674;7.824;2023-04-26T05:12:50;101028.28;;;19.91;50.79
48872;BME280;36154;51.674;7.824;2023-04-26T05:15:15;101020.53;;;19.89;50.76
48872;BME280;36154;51.674;7.824;2023-04-26T05:17:41;101024.00;;;19.90;50.57
48872;BME280;36154;51.674;7.824;2023-04-26T05:20:07;101026.56;;;19.91;50.79
48872;BME280;36154;51.674;7.824;2023-04-26T05:22:32;101028.34;;;19.86;50.60
48872;BME280;36154;51.674;7.824;2023-04-26T05:25:00;101035.19;;;19.90;50.67
48872;BME280;36154;51.674;7.824;2023-04-26T05:27:27;101033.53;;;19.86;50.56
48872;BME280;36154;51.674;7.824;2023-04-26T05:29:52;101026.63;;;19.88;50.75
48872;BME280;36154;51.674;7.824;2023-04-26T05:32:18;101040.38;;;19.90;50.69
48872;BME280;36154;51.674;7.824;2023-04-26T05:34:43;101049.00;;;19.89;50.59
48872;BME280;36154;51.674;7.824;2023-04-26T05:37:09;101044.72;;;19.88;50.61
48872;BME280;36154;51.674;7.824;2023-04-26T05:39:34;101050.72;;;19.89;50.37
48872;BME280;36154;51.674;7.824;2023-04-26T05:41:59;101045.56;;;19.89;50.42
48872;BME280;36154;51.674;7.824;2023-04-26T05:44:25;101047.31;;;19.88;50.62
48872;BME280;36154;51.674;7.824;2023-04-26T05:46:50;101043.94;;;19.85;50.57
48872;BME280;36154;51.674;7.824;2023-04-26T05:49:16;101047.34;;;19.85;50.41
48872;BME280;36154;51.674;7.824;2023-04-26T05:51:41;101050.72;;;19.89;50.45
48872;BME280;36154;51.674;7.824;2023-04-26T05:54:07;101064.50;;;19.89;50.16
48872;BME280;36154;51.674;7.824;2023-04-26T05:56:32;101057.69;;;19.85;50.47
48872;BME280;36154;51.674;7.824;2023-04-26T05:58:57;101068.00;;;19.88;50.42
48872;BME280;36154;51.674;7.824;2023-04-26T06:01:23;101068.84;;;19.87;50.45
48872;BME280;36154;51.674;7.824;2023-04-26T06:03:48;101068.00;;;19.88;50.39
48872;BME280;36154;51.674;7.824;2023-04-26T06:06:14;101076.63;;;19.87;50.25
48872;BME280;36154;51.674;7.824;2023-04-26T06:08:41;101068.00;;;19.88;50.24
48872;BME280;36154;51.674;7.824;2023-04-26T06:11:06;101068.81;;;19.90;50.06
48872;BME280;36154;51.674;7.824;2023-04-26T06:13:31;101074.84;;;19.89;50.26
48872;BME280;36154;51.674;7.824;2023-04-26T06:15:58;101076.56;;;19.90;50.08
48872;BME280;36154;51.674;7.824;2023-04-26T06:18:23;101067.13;;;19.86;49.83
48872;BME280;36154;51.674;7.824;2023-04-26T06:20:50;101076.56;;;19.90;50.15
48872;BME280;36154;51.674;7.824;2023-04-26T06:23:15;101078.28;;;19.91;50.44
48872;BME280;36154;51.674;7.824;2023-04-26T06:25:40;101084.28;;;19.92;50.55
48872;BME280;36154;51.674;7.824;2023-04-26T06:28:11;101078.34;;;19.88;50.62
48872;BME280;36154;51.674;7.824;2023-04-26T06:30:36;101086.84;;;19.93;50.81
48872;BME280;36154;51.674;7.824;2023-04-26T06:33:02;101087.69;;;19.94;50.78
48872;BME280;36154;51.674;7.824;2023-04-26T06:35:27;101088.53;;;19.94;50.96
48872;BME280;36154;51.674;7.824;2023-04-26T06:37:53;101090.25;;;19.96;50.99
48872;BME280;36154;51.674;7.824;2023-04-26T06:40:18;101089.41;;;19.95;50.99
48872;BME280;36154;51.674;7.824;2023-04-26T06:42:44;101080.91;;;19.90;51.04
48872;BME280;36154;51.674;7.824;2023-04-26T06:45:09;101089.44;;;19.93;51.02
48872;BME280;36154;51.674;7.824;2023-04-26T06:47:35;101092.84;;;19.96;51.01
48872;BME280;36154;51.674;7.824;2023-04-26T06:50:02;101089.38;;;19.97;51.20
48872;BME280;36154;51.674;7.824;2023-04-26T06:52:28;101088.56;;;19.93;51.17
48872;BME280;36154;51.674;7.824;2023-04-26T06:54:54;101091.09;;;19.96;51.07
48872;BME280;36154;51.674;7.824;2023-04-26T06:57:19;101092.84;;;19.96;50.94
48872;BME280;36154;51.674;7.824;2023-04-26T06:59:44;101088.63;;;19.91;51.16
48872;BME280;36154;51.674;7.824;2023-04-26T07:02:10;101097.16;;;19.97;50.89
48872;BME280;36154;51.674;7.824;2023-04-26T07:04:35;101091.97;;;19.97;50.97
48872;BME280;36154;51.674;7.824;2023-04-26T07:07:01;101084.25;;;19.95;51.06
48872;BME280;36154;51.674;7.824;2023-04-26T07:09:27;101098.88;;;19.94;50.88
48872;BME280;36154;51.674;7.824;2023-04-26T07:11:52;101086.03;;;19.91;50.81
48872;BME280;36154;51.674;7.824;2023-04-26T07:14:17;101101.44;;;19.96;50.79
48872;BME280;36154;51.674;7.824;2023-04-26T07:16:43;101095.44;;;19.96;50.87
48872;BME280;36154;51.674;7.824;2023-04-26T07:19:08;101100.59;;;19.96;50.85
48872;BME280;36154;51.674;7.824;2023-04-26T07:21:35;101100.59;;;19.96;51.23
48872;BME280;36154;51.674;7.824;2023-04-26T07:24:00;101100.59;;;19.96;50.87
48872;BME280;36154;51.674;7.824;2023-04-26T07:26:26;101100.59;;;19.96;50.87
48872;BME280;36154;51.674;7.824;2023-04-26T07:28:51;101090.31;;;19.92;50.92
48872;BME280;36154;51.674;7.824;2023-04-26T07:31:17;101098.00;;;19.97;50.75
48872;BME280;36154;51.674;7.824;2023-04-26T07:33:43;101091.97;;;19.97;50.90
48872;BME280;36154;51.674;7.824;2023-04-26T07:36:08;101098.84;;;19.98;50.71
48872;BME280;36154;51.674;7.824;2023-04-26T07:38:34;101088.50;;;19.96;50.96
48872;BME280;36154;51.674;7.824;2023-04-26T07:40:59;101093.66;;;19.98;50.74
48872;BME280;36154;51.674;7.824;2023-04-26T07:43:28;101093.66;;;19.98;50.65
48872;BME280;36154;51.674;7.824;2023-04-26T07:45:54;101091.06;;;19.98;50.45
48872;BME280;36154;51.674;7.824;2023-04-26T07:48:19;101086.78;;;19.98;50.60
48872;BME280;36154;51.674;7.824;2023-04-26T07:50:44;101097.06;;;20.00;50.39
48872;BME280;36154;51.674;7.824;2023-04-26T07:53:10;101079.09;;;19.93;50.74
48872;BME280;36154;51.674;7.824;2023-04-26T07:55:35;101091.06;;;19.98;50.85
48872;BME280;36154;51.674;7.824;2023-04-26T07:58:01;101086.78;;;19.98;50.36
48872;BME280;36154;51.674;7.824;2023-04-26T08:00:27;101094.47;;;20.00;50.41
48872;BME280;36154;51.674;7.824;2023-04-26T08:02:52;101088.50;;;19.98;50.46
48872;BME280;36154;51.674;7.824;2023-04-26T08:05:20;101086.72;;;20.00;50.37
48872;BME280;36154;51.674;7.824;2023-04-26T08:07:46;101082.44;;;19.99;50.28
48872;BME280;36154;51.674;7.824;2023-04-26T08:10:11;101082.44;;;19.99;50.35
48872;BME280;36154;51.674;7.824;2023-04-26T08:12:37;101080.69;;;19.99;50.36
48872;BME280;36154;51.674;7.824;2023-04-26T08:15:03;101080.69;;;19.99;50.22
48872;BME280;36154;51.674;7.824;2023-04-26T08:17:30;101082.44;;;19.99;50.44
48872;BME280;36154;51.674;7.824;2023-04-26T08:19:56;101090.22;;;19.99;50.32
48872;BME280;36154;51.674;7.824;2023-04-26T08:22:21;101090.22;;;19.99;50.42
48872;BME280;36154;51.674;7.824;2023-04-26T08:24:48;101082.44;;;19.99;50.27
48872;BME280;36154;51.674;7.824;2023-04-26T08:27:15;101068.78;;;19.92;50.29
48872;BME280;36154;51.674;7.824;2023-04-26T08:29:40;101080.69;;;19.99;50.12
48872;BME280;36154;51.674;7.824;2023-04-26T08:32:06;101079.84;;;19.99;50.28
48872;BME280;36154;51.674;7.824;2023-04-26T08:34:31;101075.53;;;19.99;50.06
48872;BME280;36154;51.674;7.824;2023-04-26T08:36:56;101083.25;;;20.01;50.20
48872;BME280;36154;51.674;7.824;2023-04-26T08:39:22;101078.13;;;19.99;50.12
48872;BME280;36154;51.674;7.824;2023-04-26T08:41:52;101079.84;;;19.99;50.21
48872;BME280;36154;51.674;7.824;2023-04-26T08:44:23;101079.84;;;19.99;50.11
48872;BME280;36154;51.674;7.824;2023-04-26T08:48:08;101078.97;;;20.00;50.18
48872;BME280;36154;51.674;7.824;2023-04-26T08:50:02;101079.84;;;19.99;50.27
48872;BME280;36154;51.674;7.824;2023-04-26T08:52:30;101077.28;;;19.99;50.05
48872;BME280;36154;51.674;7.824;2023-04-26T08:54:57;101073.78;;;20.00;50.06
48872;BME280;36154;51.674;7.824;2023-04-26T08:57:23;101076.38;;;20.00;49.98
48872;BME280;36154;51.674;7.824;2023-04-26T08:59:49;101084.13;;;20.00;49.86
48872;BME280;36154;51.674;7.824;2023-04-26T09:02:20;101079.84;;;19.99;50.01
48872;BME280;36154;51.674;7.824;2023-04-26T09:04:46;101079.91;;;19.96;50.02
48872;BME280;36154;51.674;7.824;2023-04-26T09:07:30;101085.03;;;19.99;49.96
48872;BME280;36154;51.674;7.824;2023-04-26T09:09:57;101077.28;;;19.99;49.77
48872;BME280;36154;51.674;7.824;2023-04-26T09:12:23;101085.03;;;19.99;50.06
48872;BME280;36154;51.674;7.824;2023-04-26T09:14:49;101079.84;;;19.99;49.93
48872;BME280;36154;51.674;7.824;2023-04-26T09:17:39;101084.19;;;19.98;49.97
48872;BME280;36154;51.674;7.824;2023-04-26T09:20:23;101084.19;;;19.98;49.76
48872;BME280;36154;51.674;7.824;2023-04-26T09:22:50;101092.81;;;19.97;49.88
48872;BME280;36154;51.674;7.824;2023-04-26T09:25:18;101085.94;;;19.96;50.01
48872;BME280;36154;51.674;7.824;2023-04-26T09:27:50;101089.50;;;19.90;49.72
48872;BME280;36154;51.674;7.824;2023-04-26T09:30:16;101076.53;;;19.92;49.91
48872;BME280;36154;51.674;7.824;2023-04-26T09:32:47;101091.97;;;19.97;49.74
48872;BME280;36154;51.674;7.824;2023-04-26T09:35:33;101093.66;;;19.98;49.68
48872;BME280;36154;51.674;7.824;2023-04-26T09:40:26;101088.50;;;19.98;49.70
48872;BME280;36154;51.674;7.824;2023-04-26T09:42:59;101091.06;;;19.98;49.98
48872;BME280;36154;51.674;7.824;2023-04-26T09:45:26;101097.13;;;19.98;50.28
48872;BME280;36154;51.674;7.824;2023-04-26T09:47:52;101093.66;;;19.98;50.27
48872;BME280;36154;51.674;7.824;2023-04-26T09:50:28;101090.22;;;19.99;50.36
48872;BME280;36154;51.674;7.824;2023-04-26T09:52:55;101091.16;;;19.93;50.49
48872;BME280;36154;51.674;7.824;2023-04-26T09:55:28;101091.13;;;19.94;50.85
48872;BME280;36154;51.674;7.824;2023-04-26T09:57:54;101092.78;;;19.99;50.62
48872;BME280;36154;51.674;7.824;2023-04-26T10:00:20;101099.72;;;19.98;50.74
48872;BME280;36154;51.674;7.824;2023-04-26T10:02:46;101092.81;;;19.97;50.70
48872;BME280;36154;51.674;7.824;2023-04-26T10:05:11;101100.56;;;19.99;50.91
48872;BME280;36154;51.674;7.824;2023-04-26T10:07:37;101093.66;;;19.98;50.84
48872;BME280;36154;51.674;7.824;2023-04-26T10:10:03;101088.50;;;19.96;50.92
48872;BME280;36154;51.674;7.824;2023-04-26T10:12:29;101092.81;;;19.97;51.05
48872;BME280;36154;51.674;7.824;2023-04-26T10:14:55;101088.50;;;19.98;51.02
48872;BME280;36154;51.674;7.824;2023-04-26T10:17:21;101097.16;;;19.97;51.21
48872;BME280;36154;51.674;7.824;2023-04-26T10:19:49;101085.03;;;19.99;51.01
48872;BME280;36154;51.674;7.824;2023-04-26T10:22:22;101077.31;;;19.97;51.17
48872;BME280;36154;51.674;7.824;2023-04-26T10:24:48;101072.19;;;19.94;51.09
48872;BME280;36154;51.674;7.824;2023-04-26T10:27:13;101072.97;;;19.98;51.15
48872;BME280;36154;51.674;7.824;2023-04-26T10:32:21;101075.56;;;19.98;51.35
48872;BME280;36154;51.674;7.824;2023-04-26T10:35:11;101067.78;;;19.98;51.16
48872;BME280;36154;51.674;7.824;2023-04-26T10:45:49;101060.94;;;19.97;51.21
48872;BME280;36154;51.674;7.824;2023-04-26T10:58:55;101056.63;;;19.96;51.44
48872;BME280;36154;51.674;7.824;2023-04-26T11:01:31;101055.88;;;19.90;51.59
48872;BME280;36154;51.674;7.824;2023-04-26T11:06:22;101061.81;;;19.96;51.55
48872;BME280;36154;51.674;7.824;2023-04-26T11:08:48;101066.97;;;19.96;51.62
48872;BME280;36154;51.674;7.824;2023-04-26T11:11:16;101057.59;;;19.91;51.57
48872;BME280;36154;51.674;7.824;2023-04-26T11:13:44;101045.59;;;19.87;51.52
48872;BME280;36154;51.674;7.824;2023-04-26T11:16:15;101064.41;;;19.96;51.51
48872;BME280;36154;51.674;7.824;2023-04-26T11:18:42;101054.09;;;19.92;51.32
48872;BME280;36154;51.674;7.824;2023-04-26T11:21:11;101055.78;;;19.97;51.27
48872;BME280;36154;51.674;7.824;2023-04-26T11:23:37;101061.78;;;19.97;51.00
48872;BME280;36154;51.674;7.824;2023-04-26T11:26:04;101059.19;;;19.97;51.20
48872;BME280;36154;51.674;7.824;2023-04-26T11:28:31;101058.34;;;19.97;51.20
48872;BME280;36154;51.674;7.824;2023-04-26T11:30:57;101060.94;;;19.97;51.15
48872;BME280;36154;51.674;7.824;2023-04-26T11:33:23;101059.19;;;19.97;51.24
48872;BME280;36154;51.674;7.824;2023-04-26T11:35:52;101055.78;;;19.97;51.35
48872;BME280;36154;51.674;7.824;2023-04-26T11:38:22;101044.66;;;19.91;51.12
48872;BME280;36154;51.674;7.824;2023-04-26T11:41:02;101060.03;;;19.98;51.21
48872;BME280;36154;51.674;7.824;2023-04-26T11:43:40;101053.19;;;19.97;51.32
48872;BME280;36154;51.674;7.824;2023-04-26T11:46:07;101055.78;;;19.97;51.14
48872;BME280;36154;51.674;7.824;2023-04-26T11:48:35;101056.59;;;19.97;51.24
48872;BME280;36154;51.674;7.824;2023-04-26T11:51:02;101049.75;;;19.94;51.03
48872;BME280;36154;51.674;7.824;2023-04-26T11:53:39;101057.44;;;19.98;51.25
48872;BME280;36154;51.674;7.824;2023-04-26T11:56:14;101051.44;;;19.97;51.31
48872;BME280;36154;51.674;7.824;2023-04-26T11:58:47;101050.56;;;19.98;51.12
48872;BME280;36154;51.674;7.824;2023-04-26T12:01:19;101057.44;;;19.98;51.15
48872;BME280;36154;51.674;7.824;2023-04-26T12:03:48;101048.81;;;19.99;51.06
48872;BME280;36154;51.674;7.824;2023-04-26T12:06:14;101060.84;;;20.00;51.11
48872;BME280;36154;51.674;7.824;2023-04-26T12:08:39;101056.59;;;19.99;51.26
48872;BME280;36154;51.674;7.824;2023-04-26T12:11:05;101057.44;;;19.98;51.29
48872;BME280;36154;51.674;7.824;2023-04-26T12:13:30;101054.00;;;19.99;51.08
48872;BME280;36154;51.674;7.824;2023-04-26T12:15:57;101036.91;;;19.91;51.22
48872;BME280;36154;51.674;7.824;2023-04-26T12:18:29;101057.44;;;19.98;51.06
48872;BME280;36154;51.674;7.824;2023-04-26T12:20:57;101051.44;;;19.97;50.91
48872;BME280;36154;51.674;7.824;2023-04-26T12:23:23;101044.59;;;19.93;51.07
48872;BME280;36154;51.674;7.824;2023-04-26T12:25:56;101054.94;;;19.93;51.07
48872;BME280;36154;51.674;7.824;2023-04-26T12:28:26;101063.53;;;19.97;50.99
48872;BME280;36154;51.674;7.824;2023-04-26T12:30:52;101060.94;;;19.97;50.98
48872;BME280;36154;51.674;7.824;2023-04-26T12:33:17;101056.63;;;19.96;51.02
48872;BME280;36154;51.674;7.824;2023-04-26T12:35:47;101048.09;;;19.92;50.82
48872;BME280;36154;51.674;7.824;2023-04-26T12:38:15;101065.22;;;19.98;50.90
48872;BME280;36154;51.674;7.824;2023-04-26T12:40:41;101050.59;;;19.97;50.86
48872;BME280;36154;51.674;7.824;2023-04-26T12:43:06;101063.53;;;19.97;50.93
48872;BME280;36154;51.674;7.824;2023-04-26T12:45:32;101055.84;;;19.92;51.03
48872;BME280;36154;51.674;7.824;2023-04-26T12:47:57;101054.09;;;19.92;51.00
48872;BME280;36154;51.674;7.824;2023-04-26T12:50:23;101060.94;;;19.97;50.83
48872;BME280;36154;51.674;7.824;2023-04-26T12:52:48;101069.56;;;19.96;50.88
48872;BME280;36154;51.674;7.824;2023-04-26T12:55:14;101060.06;;;19.96;50.72
48872;BME280;36154;51.674;7.824;2023-04-26T12:57:41;101066.97;;;19.96;50.88
48872;BME280;36154;51.674;7.824;2023-04-26T13:00:12;101058.38;;;19.95;50.77
48872;BME280;36154;51.674;7.824;2023-04-26T13:02:38;101065.25;;;19.96;50.82
48872;BME280;36154;51.674;7.824;2023-04-26T13:05:04;101054.06;;;19.96;50.76
48872;BME280;36154;51.674;7.824;2023-04-26T13:07:34;101058.34;;;19.97;50.69
48872;BME280;36154;51.674;7.824;2023-04-26T13:10:01;101055.78;;;19.95;50.77
48872;BME280;36154;51.674;7.824;2023-04-26T13:12:27;101042.06;;;19.91;50.57
48872;BME280;36154;51.674;7.824;2023-04-26T13:14:53;101054.06;;;19.96;50.64